createdAt,value
2019-06-08T00:02:16.621Z,22.90
2019-06-08T00:04:43.970Z,23.00
2019-06-08T00:07:13.000Z,22.90
2019-06-08T00:09:40.860Z,22.80
2019-06-08T00:12:08.175Z,22.80
2019-06-08T00:14:35.625Z,22.90
2019-06-08T00:17:03.201Z,22.90
2019-06-08T00:19:30.562Z,23.00
2019-06-08T00:21:58.138Z,23.00
2019-06-08T00:24:25.260Z,23.10
2019-06-08T00:26:52.820Z,22.90
2019-06-08T00:29:20.375Z,23.20
2019-06-08T00:31:47.735Z,23.20
2019-06-08T00:34:16.492Z,23.40
2019-06-08T00:36:43.967Z,23.60
2019-06-08T00:39:11.737Z,23.70
2019-06-08T00:41:39.889Z,23.80
2019-06-08T00:44:07.366Z,23.70
2019-06-08T00:46:34.485Z,24.00
2019-06-08T00:49:01.970Z,24.20
2019-06-08T00:51:30.245Z,24.40
2019-06-08T00:53:57.705Z,24.30
2019-06-08T00:56:25.951Z,24.10
2019-06-08T00:58:53.667Z,24.00
2019-06-08T01:01:24.263Z,24.10
2019-06-08T01:03:50.592Z,23.50
2019-06-08T01:06:18.845Z,23.10
2019-06-08T01:08:46.266Z,23.00
2019-06-08T01:11:13.984Z,23.00
2019-06-08T01:13:41.446Z,23.00
2019-06-08T01:16:09.396Z,23.00
2019-06-08T01:18:36.871Z,22.70
2019-06-08T01:21:04.742Z,22.50
2019-06-08T01:23:32.290Z,22.40
2019-06-08T01:26:00.116Z,22.50
2019-06-08T01:28:28.222Z,22.10
2019-06-08T01:30:55.880Z,22.40
2019-06-08T01:33:24.487Z,22.30
2019-06-08T01:35:52.031Z,22.50
2019-06-08T01:38:19.186Z,22.20
2019-06-08T01:40:46.751Z,22.20
2019-06-08T01:43:14.195Z,22.50
2019-06-08T01:45:41.955Z,22.50
2019-06-08T01:48:20.180Z,22.20
2019-06-08T01:50:39.036Z,22.10
2019-06-08T01:53:06.482Z,21.90
2019-06-08T01:55:33.925Z,22.00
2019-06-08T01:58:01.399Z,21.80
2019-06-08T02:00:33.536Z,22.00
2019-06-08T02:02:58.956Z,21.80
2019-06-08T02:05:26.417Z,21.60
2019-06-08T02:07:54.180Z,21.60
2019-06-08T02:10:21.641Z,21.40
2019-06-08T02:12:49.091Z,21.40
2019-06-08T02:15:17.477Z,21.20
2019-06-08T02:17:44.938Z,21.10
2019-06-08T02:20:16.060Z,21.20
2019-06-08T02:22:43.414Z,21.10
2019-06-08T02:25:11.041Z,21.10
2019-06-08T02:27:39.715Z,21.10
2019-06-08T02:30:11.020Z,21.10
2019-06-08T02:32:38.365Z,21.20
2019-06-08T02:35:05.901Z,21.40
2019-06-08T02:37:35.285Z,21.40
2019-06-08T02:40:04.744Z,21.10
2019-06-08T02:42:33.073Z,21.10
2019-06-08T02:45:01.162Z,21.20
2019-06-08T02:47:30.321Z,21.00
2019-06-08T02:49:57.765Z,20.80
2019-06-08T02:52:25.265Z,21.00
2019-06-08T02:54:52.725Z,20.90
2019-06-08T02:57:24.283Z,21.00
2019-06-08T02:59:54.848Z,21.10
2019-06-08T03:02:27.388Z,21.20
2019-06-08T03:04:56.079Z,21.30
2019-06-08T03:07:23.863Z,21.10
2019-06-08T03:09:54.162Z,21.10
2019-06-08T03:12:24.961Z,20.90
2019-06-08T03:14:53.325Z,21.00
2019-06-08T03:17:20.482Z,21.10
2019-06-08T03:19:47.599Z,20.90
2019-06-08T03:22:14.921Z,20.80
2019-06-08T03:24:44.033Z,21.10
2019-06-08T03:27:11.291Z,20.80
2019-06-08T03:29:39.479Z,20.60
2019-06-08T03:32:07.738Z,20.60
2019-06-08T03:34:39.723Z,20.70
2019-06-08T03:37:04.760Z,20.80
2019-06-08T03:39:32.526Z,20.50
2019-06-08T03:41:59.988Z,20.60
2019-06-08T03:44:27.258Z,20.60
2019-06-08T03:46:54.620Z,20.80
2019-06-08T03:49:40.331Z,20.50
2019-06-08T03:51:51.465Z,20.60
2019-06-08T03:54:18.913Z,20.70
2019-06-08T03:56:46.252Z,20.70
2019-06-08T03:59:13.834Z,20.80
2019-06-08T04:01:41.622Z,20.40
2019-06-08T04:04:09.045Z,20.50
2019-06-08T04:06:37.740Z,20.60
2019-06-08T04:09:06.868Z,20.50
2019-06-08T04:11:34.359Z,20.40
2019-06-08T04:14:01.822Z,20.40
2019-06-08T04:16:29.199Z,20.50
2019-06-08T04:18:56.969Z,20.70
2019-06-08T04:21:24.529Z,20.60
2019-06-08T04:23:52.085Z,20.60
2019-06-08T04:26:19.458Z,20.80
2019-06-08T04:28:47.941Z,21.00
2019-06-08T04:31:16.100Z,21.00
2019-06-08T04:33:44.260Z,21.00
2019-06-08T04:36:12.535Z,21.00
2019-06-08T04:38:41.330Z,21.00
2019-06-08T04:41:09.028Z,20.90
2019-06-08T04:43:38.468Z,21.10
2019-06-08T04:46:05.950Z,21.30
2019-06-08T04:48:33.816Z,21.50
2019-06-08T04:51:01.195Z,22.20
2019-06-08T04:53:28.617Z,22.40
2019-06-08T04:55:56.073Z,22.00
2019-06-08T04:58:23.123Z,21.80
2019-06-08T05:00:51.039Z,21.40
2019-06-08T05:03:18.495Z,21.60
2019-06-08T05:05:47.663Z,21.40
2019-06-08T05:08:14.934Z,21.40
2019-06-08T05:10:43.256Z,21.40
2019-06-08T05:13:32.437Z,21.50
2019-06-08T05:15:59.546Z,21.50
2019-06-08T05:18:26.734Z,21.60
2019-06-08T05:20:53.954Z,21.60
2019-06-08T05:23:21.738Z,21.40
2019-06-08T05:25:49.423Z,21.40
2019-06-08T05:28:16.839Z,21.50
2019-06-08T05:30:45.262Z,21.60
2019-06-08T05:33:12.520Z,21.60
2019-06-08T05:35:39.624Z,21.40
2019-06-08T05:38:06.758Z,21.70
2019-06-08T05:40:33.886Z,21.50
2019-06-08T05:43:01.007Z,21.50
2019-06-08T05:45:28.081Z,21.60
2019-06-08T05:47:55.266Z,21.50
2019-06-08T05:50:22.473Z,21.50
2019-06-08T05:52:51.522Z,21.40
2019-06-08T05:55:18.762Z,21.60
2019-06-08T05:57:46.283Z,21.80
2019-06-08T06:00:14.569Z,21.80
2019-06-08T06:02:42.239Z,21.90
2019-06-08T06:05:09.951Z,21.80
2019-06-08T06:07:37.138Z,22.10
2019-06-08T06:10:05.457Z,21.70
2019-06-08T06:12:32.673Z,21.90
2019-06-08T06:15:00.067Z,21.80
2019-06-08T06:17:27.236Z,21.90
2019-06-08T06:19:54.544Z,22.00
2019-06-08T06:22:21.792Z,21.70
2019-06-08T06:24:49.734Z,22.40
2019-06-08T06:27:17.126Z,22.30
2019-06-08T06:29:45.466Z,22.30
2019-06-08T06:32:12.718Z,21.70
2019-06-08T06:34:39.981Z,21.80
2019-06-08T06:37:07.187Z,21.70
2019-06-08T06:39:34.474Z,21.50
2019-06-08T06:42:01.746Z,21.90
2019-06-08T06:44:29.069Z,21.60
2019-06-08T06:46:56.371Z,21.90
2019-06-08T06:49:23.536Z,21.80
2019-06-08T06:51:50.611Z,21.70
2019-06-08T06:54:18.150Z,22.20
2019-06-08T06:56:45.323Z,21.90
2019-06-08T06:59:12.727Z,21.90
2019-06-08T07:01:40.292Z,22.00
2019-06-08T07:04:07.874Z,22.20
2019-06-08T07:06:35.415Z,22.00
2019-06-08T07:09:04.492Z,22.10
2019-06-08T07:11:32.017Z,22.30
2019-06-08T07:13:59.211Z,22.40
2019-06-08T07:16:26.522Z,22.50
2019-06-08T07:18:54.504Z,22.50
2019-06-08T07:21:22.093Z,22.30
2019-06-08T07:23:51.112Z,22.60
2019-06-08T07:26:18.436Z,22.60
2019-06-08T07:28:46.225Z,22.50
2019-06-08T07:31:14.726Z,22.40
2019-06-08T07:33:41.925Z,22.40
2019-06-08T07:36:09.023Z,22.60
2019-06-08T07:38:38.214Z,22.60
2019-06-08T07:41:05.586Z,22.90
2019-06-08T07:43:33.055Z,22.80
2019-06-08T07:46:00.545Z,22.80
2019-06-08T07:48:28.199Z,22.90
2019-06-08T07:50:56.455Z,22.80
2019-06-08T07:53:24.074Z,23.00
2019-06-08T07:55:51.605Z,23.20
2019-06-08T07:58:19.081Z,23.40
2019-06-08T08:00:46.649Z,23.20
2019-06-08T08:03:14.219Z,22.90
2019-06-08T08:05:41.614Z,23.50
2019-06-08T08:08:08.974Z,23.70
2019-06-08T08:10:36.743Z,23.70
2019-06-08T08:13:04.245Z,23.80
2019-06-08T08:15:31.455Z,23.90
2019-06-08T08:17:59.622Z,23.80
2019-06-08T08:20:27.314Z,23.80
2019-06-08T08:22:58.888Z,23.70
2019-06-08T08:25:24.559Z,23.90
2019-06-08T08:27:53.695Z,23.80
2019-06-08T08:30:22.494Z,24.30
2019-06-08T08:32:50.887Z,24.30
2019-06-08T08:35:18.826Z,24.60
2019-06-08T08:37:47.439Z,24.30
2019-06-08T08:40:17.795Z,24.50
2019-06-08T08:42:44.908Z,24.30
2019-06-08T08:45:13.947Z,24.10
2019-06-08T08:47:41.087Z,24.30
2019-06-08T08:50:10.271Z,24.60
2019-06-08T08:52:40.775Z,24.80
2019-06-08T08:55:08.319Z,24.70
2019-06-08T08:57:38.563Z,24.40
2019-06-08T09:00:08.553Z,24.50
2019-06-08T09:02:37.449Z,24.60
2019-06-08T09:05:05.200Z,24.60
2019-06-08T09:07:32.344Z,24.60
2019-06-08T09:10:02.225Z,24.90
2019-06-08T09:12:28.547Z,25.00
2019-06-08T09:14:56.697Z,25.10
2019-06-08T09:17:24.874Z,24.70
2019-06-08T09:19:52.861Z,24.80
2019-06-08T09:22:21.159Z,25.40
2019-06-08T09:24:48.680Z,24.90
2019-06-08T09:27:17.950Z,25.10
2019-06-08T09:29:48.010Z,24.90
2019-06-08T09:32:14.657Z,25.10
2019-06-08T09:34:41.985Z,25.30
2019-06-08T09:37:09.261Z,25.60
2019-06-08T09:39:38.627Z,25.50
2019-06-08T09:42:06.246Z,25.20
2019-06-08T09:44:37.696Z,25.20
2019-06-08T09:47:09.482Z,25.50
2019-06-08T09:49:37.519Z,25.30
2019-06-08T09:52:05.268Z,26.10
2019-06-08T09:54:33.916Z,26.20
2019-06-08T09:57:03.706Z,26.30
2019-06-08T09:59:30.668Z,26.30
2019-06-08T10:02:05.064Z,26.20
2019-06-08T10:04:29.215Z,26.20
2019-06-08T10:06:58.998Z,25.80
2019-06-08T10:09:28.259Z,26.40
2019-06-08T10:11:58.982Z,26.50
2019-06-08T10:14:24.797Z,26.90
2019-06-08T10:16:52.276Z,27.10
2019-06-08T10:19:19.953Z,26.70
2019-06-08T10:21:48.157Z,26.90
2019-06-08T10:24:15.969Z,27.20
2019-06-08T10:26:43.694Z,27.20
2019-06-08T10:29:11.010Z,27.30
2019-06-08T10:31:43.383Z,27.40
2019-06-08T10:34:10.973Z,27.60
2019-06-08T10:36:38.311Z,27.30
2019-06-08T10:39:11.533Z,27.10
2019-06-08T10:41:38.687Z,27.00
2019-06-08T10:44:11.274Z,27.30
2019-06-08T10:46:35.078Z,27.40
2019-06-08T10:49:04.114Z,26.40
2019-06-08T10:51:31.552Z,26.80
2019-06-08T10:53:59.956Z,27.10
2019-06-08T10:56:30.867Z,27.40
2019-06-08T10:58:58.047Z,27.30
2019-06-08T11:01:28.143Z,27.60
2019-06-08T11:03:58.050Z,27.30
2019-06-08T11:06:24.602Z,26.30
2019-06-08T11:08:52.011Z,26.40
2019-06-08T11:11:20.212Z,26.20
2019-06-08T11:13:50.498Z,26.10
2019-06-08T11:16:18.142Z,26.30
2019-06-08T11:18:45.693Z,26.80
2019-06-08T11:21:13.119Z,26.90
2019-06-08T11:23:41.630Z,26.90
2019-06-08T11:26:17.851Z,27.00
2019-06-08T11:28:38.415Z,26.90
2019-06-08T11:31:08.430Z,26.70
2019-06-08T11:33:34.953Z,26.60
2019-06-08T11:36:04.462Z,27.00
2019-06-08T11:38:31.253Z,27.30
2019-06-08T11:41:00.890Z,27.70
2019-06-08T11:43:28.735Z,27.70
2019-06-08T11:45:58.280Z,27.60
2019-06-08T11:48:25.286Z,27.80
2019-06-08T11:50:52.494Z,27.70
2019-06-08T11:53:19.907Z,27.20
2019-06-08T11:55:50.957Z,27.50
2019-06-08T11:58:22.181Z,27.90
2019-06-08T12:01:00.981Z,27.90
2019-06-08T12:03:27.694Z,27.70
2019-06-08T12:05:58.276Z,27.40
2019-06-08T12:08:28.406Z,27.10
2019-06-08T12:11:01.066Z,27.60
2019-06-08T12:13:27.625Z,27.40
2019-06-08T12:15:54.822Z,27.60
2019-06-08T12:18:22.650Z,27.60
2019-06-08T12:20:50.417Z,27.80
2019-06-08T12:23:18.276Z,28.00
2019-06-08T12:25:45.856Z,28.20
2019-06-08T12:28:13.087Z,28.30
2019-06-08T12:30:40.657Z,27.90
2019-06-08T12:33:09.817Z,28.00
2019-06-08T12:35:37.195Z,28.20
2019-06-08T12:38:06.230Z,28.40
2019-06-08T12:40:34.264Z,28.40
2019-06-08T12:43:01.613Z,28.40
2019-06-08T12:45:29.074Z,28.80
2019-06-08T12:47:57.347Z,28.90
2019-06-08T12:50:25.138Z,28.80
2019-06-08T12:52:52.517Z,28.70
2019-06-08T12:55:25.064Z,28.20
2019-06-08T12:57:51.672Z,27.70
2019-06-08T13:00:20.133Z,27.90
2019-06-08T13:02:51.047Z,28.10
2019-06-08T13:05:21.609Z,28.40
2019-06-08T13:07:47.999Z,28.50
2019-06-08T13:10:15.427Z,28.50
2019-06-08T13:12:42.661Z,28.30
2019-06-08T13:15:11.269Z,29.00
2019-06-08T13:17:38.754Z,28.50
2019-06-08T13:20:14.869Z,28.60
2019-06-08T13:22:42.439Z,28.80
2019-06-08T13:25:19.357Z,28.80
2019-06-08T13:27:38.721Z,28.90
2019-06-08T13:30:07.545Z,29.10
2019-06-08T13:32:34.774Z,28.90
2019-06-08T13:35:04.050Z,28.60
2019-06-08T13:37:31.221Z,28.60
2019-06-08T13:39:59.261Z,28.60
2019-06-08T13:42:27.971Z,29.00
2019-06-08T13:44:57.683Z,29.20
2019-06-08T13:47:24.446Z,29.10
2019-06-08T13:49:51.855Z,29.00
2019-06-08T13:52:22.188Z,28.70
2019-06-08T13:54:48.124Z,28.80
2019-06-08T13:57:15.451Z,28.90
2019-06-08T13:59:42.754Z,29.20
2019-06-08T14:02:10.421Z,29.20
2019-06-08T14:04:39.693Z,29.50
2019-06-08T14:07:07.759Z,28.90
2019-06-08T14:09:35.381Z,29.40
2019-06-08T14:12:02.880Z,29.60
2019-06-08T14:14:33.541Z,29.50
2019-06-08T14:16:59.446Z,29.30
2019-06-08T14:19:29.710Z,29.70
2019-06-08T14:21:56.110Z,29.60
2019-06-08T14:24:28.970Z,30.10
2019-06-08T14:26:52.571Z,29.80
2019-06-08T14:29:22.727Z,29.50
2019-06-08T14:31:49.856Z,29.60
2019-06-08T14:34:18.650Z,29.20
2019-06-08T14:36:48.721Z,28.90
2019-06-08T14:39:18.384Z,28.80
2019-06-08T14:41:44.659Z,28.70
2019-06-08T14:44:11.915Z,28.90
2019-06-08T14:46:41.225Z,28.90
2019-06-08T14:49:09.848Z,28.80
2019-06-08T14:51:49.403Z,28.90
2019-06-08T14:54:22.458Z,29.10
2019-06-08T14:56:48.064Z,29.00
2019-06-08T14:59:18.341Z,29.10
2019-06-08T15:01:45.405Z,28.80
2019-06-08T15:04:13.269Z,29.10
2019-06-08T15:06:40.829Z,28.90
2019-06-08T15:09:08.698Z,29.30
2019-06-08T15:11:38.137Z,29.00
2019-06-08T15:14:05.442Z,29.40
2019-06-08T15:16:33.067Z,29.50
2019-06-08T15:19:00.541Z,29.20
2019-06-08T15:21:32.404Z,29.20
2019-06-08T15:23:58.066Z,29.10
2019-06-08T15:26:33.611Z,29.10
2019-06-08T15:29:00.833Z,29.10
2019-06-08T15:31:30.045Z,28.90
2019-06-08T15:33:57.183Z,28.90
2019-06-08T15:36:25.215Z,29.00
2019-06-08T15:38:52.470Z,29.30
2019-06-08T15:41:21.426Z,29.60
2019-06-08T15:43:48.663Z,29.40
2019-06-08T15:46:18.256Z,29.40
2019-06-08T15:48:45.288Z,29.50
2019-06-08T15:51:12.548Z,29.20
2019-06-08T15:53:40.414Z,29.30
2019-06-08T15:56:08.532Z,29.30
2019-06-08T15:58:40.127Z,29.00
2019-06-08T16:01:04.853Z,29.30
2019-06-08T16:03:33.445Z,29.10
2019-06-08T16:06:00.726Z,29.00
2019-06-08T16:08:27.984Z,29.10
2019-06-08T16:10:55.118Z,29.30
2019-06-08T16:13:22.574Z,29.50
2019-06-08T16:15:50.139Z,29.20
2019-06-08T16:18:17.512Z,29.20
2019-06-08T16:20:44.618Z,29.30
2019-06-08T16:23:11.740Z,29.40
2019-06-08T16:25:39.140Z,28.90
2019-06-08T16:28:06.368Z,28.80
2019-06-08T16:30:33.584Z,28.80
2019-06-08T16:33:00.929Z,28.90
2019-06-08T16:35:29.549Z,28.70
2019-06-08T16:37:56.909Z,28.80
2019-06-08T16:40:24.077Z,28.60
2019-06-08T16:42:51.274Z,28.50
2019-06-08T16:45:18.935Z,28.30
2019-06-08T16:47:46.376Z,27.80
2019-06-08T16:50:23.921Z,27.70
2019-06-08T16:52:43.252Z,27.40
2019-06-08T16:55:10.853Z,27.40
2019-06-08T16:57:39.921Z,27.20
2019-06-08T17:02:37.228Z,26.90
2019-06-08T17:05:06.782Z,27.00
2019-06-08T17:07:35.472Z,27.00
2019-06-08T17:10:05.675Z,26.70
2019-06-08T17:12:33.139Z,26.60
2019-06-08T17:15:00.385Z,26.30
2019-06-08T17:17:27.882Z,26.40
2019-06-08T17:19:55.297Z,26.20
2019-06-08T17:22:22.963Z,26.20
2019-06-08T17:24:50.518Z,26.10
2019-06-08T17:27:26.824Z,26.10
2019-06-08T17:29:47.064Z,26.00
2019-06-08T17:32:14.633Z,25.90
2019-06-08T17:34:42.461Z,26.00
2019-06-08T17:37:09.878Z,25.90
2019-06-08T17:39:37.931Z,25.80
2019-06-08T17:42:05.484Z,25.80
2019-06-08T17:44:34.914Z,25.90
2019-06-08T17:47:02.323Z,25.80
2019-06-08T17:49:29.673Z,25.70
2019-06-08T17:51:56.914Z,25.50
2019-06-08T17:54:24.373Z,25.60
2019-06-08T17:56:51.580Z,25.50
2019-06-08T17:59:18.754Z,25.60
2019-06-08T18:01:46.158Z,25.40
2019-06-08T18:04:13.910Z,25.20
2019-06-08T18:06:41.861Z,25.30
2019-06-08T18:09:10.460Z,25.30
2019-06-08T18:11:40.516Z,25.10
2019-06-08T18:14:08.246Z,25.10
2019-06-08T18:16:39.369Z,25.10
2019-06-08T18:19:04.893Z,25.00
2019-06-08T18:21:32.402Z,25.10
2019-06-08T18:24:00.065Z,25.00
2019-06-08T18:26:27.905Z,25.00
2019-06-08T18:28:55.227Z,25.00
2019-06-08T18:31:22.593Z,25.10
2019-06-08T18:33:50.541Z,25.10
2019-06-08T18:36:18.001Z,25.10
2019-06-08T18:38:46.219Z,25.10
2019-06-08T18:41:14.557Z,25.20
2019-06-08T18:43:42.960Z,25.20
2019-06-08T18:46:11.204Z,25.20
2019-06-08T18:48:41.773Z,25.10
2019-06-08T18:51:09.504Z,25.00
2019-06-08T18:53:54.185Z,25.10
2019-06-08T18:56:08.211Z,25.10
2019-06-08T18:58:35.955Z,25.00
2019-06-08T19:01:03.454Z,25.00
2019-06-08T19:03:31.129Z,24.90
2019-06-08T19:05:58.893Z,24.80
2019-06-08T19:08:27.849Z,24.70
2019-06-08T19:10:57.358Z,24.70
2019-06-08T19:13:27.075Z,24.80
2019-06-08T19:15:54.442Z,24.70
2019-06-08T19:18:21.555Z,24.80
2019-06-08T19:20:52.664Z,24.80
2019-06-08T19:23:21.242Z,24.70
2019-06-08T19:25:49.444Z,24.70
2019-06-08T19:28:19.351Z,24.50
2019-06-08T19:30:50.031Z,24.60
2019-06-08T19:33:17.801Z,24.50
2019-06-08T19:35:48.309Z,24.50
2019-06-08T19:38:14.253Z,24.40
2019-06-08T19:40:42.652Z,24.30
2019-06-08T19:43:31.543Z,24.20
2019-06-08T19:45:58.842Z,24.10
2019-06-08T19:48:30.722Z,24.10
2019-06-08T19:50:58.047Z,24.00
2019-06-08T19:53:24.800Z,24.00
2019-06-08T19:55:54.171Z,24.00
2019-06-08T19:58:21.251Z,24.10
2019-06-08T20:00:53.299Z,24.10
2019-06-08T20:03:17.915Z,24.00
2019-06-08T20:05:46.795Z,24.00
2019-06-08T20:08:14.721Z,24.00
2019-06-08T20:10:43.040Z,23.80
2019-06-08T20:13:10.636Z,24.10
2019-06-08T20:15:40.713Z,24.00
2019-06-08T20:18:07.286Z,24.00
2019-06-08T20:20:34.749Z,23.90
2019-06-08T20:23:02.100Z,23.90
2019-06-08T20:25:29.365Z,23.90
2019-06-08T20:27:58.650Z,23.90
2019-06-08T20:30:28.013Z,23.80
2019-06-08T20:32:57.426Z,23.70
2019-06-08T20:35:24.734Z,23.70
2019-06-08T20:37:51.952Z,23.60
2019-06-08T20:40:19.414Z,23.60
2019-06-08T20:42:49.617Z,23.50
2019-06-08T20:45:17.251Z,23.40
2019-06-08T20:47:47.728Z,23.40
2019-06-08T20:50:14.956Z,23.40
2019-06-08T20:52:42.537Z,23.40
2019-06-08T20:55:10.289Z,23.50
2019-06-08T20:57:38.992Z,23.60
2019-06-08T21:00:11.592Z,23.60
2019-06-08T21:02:37.577Z,23.70
2019-06-08T21:05:07.886Z,23.70
2019-06-08T21:07:35.897Z,23.50
2019-06-08T21:10:03.946Z,23.40
2019-06-08T21:12:31.291Z,23.40
2019-06-08T21:14:58.843Z,23.40
2019-06-08T21:17:27.550Z,23.40
2019-06-08T21:19:57.749Z,23.30
2019-06-08T21:22:24.394Z,23.30
2019-06-08T21:24:53.680Z,23.10
2019-06-08T21:27:20.731Z,23.20
2019-06-08T21:29:56.172Z,23.20
2019-06-08T21:32:17.759Z,23.20
2019-06-08T21:34:47.638Z,23.10
2019-06-08T21:37:14.353Z,23.20
2019-06-08T21:39:41.807Z,23.10
2019-06-08T21:42:09.467Z,23.20
2019-06-08T21:44:37.350Z,23.30
2019-06-08T21:47:04.622Z,23.30
2019-06-08T21:49:31.952Z,23.20
2019-06-08T21:52:01.100Z,23.20
2019-06-08T21:54:28.397Z,23.10
2019-06-08T21:56:59.209Z,23.10
2019-06-08T21:59:24.937Z,23.10
2019-06-08T22:01:53.486Z,23.00
2019-06-08T22:04:21.790Z,22.90
2019-06-08T22:06:49.784Z,22.90
2019-06-08T22:09:18.142Z,22.80
2019-06-08T22:11:47.126Z,22.80
2019-06-08T22:14:14.591Z,22.80
2019-06-08T22:16:41.792Z,22.80
2019-06-08T22:19:09.236Z,22.70
2019-06-08T22:21:37.697Z,22.70
2019-06-08T22:24:07.758Z,22.60
2019-06-08T22:26:34.962Z,22.60
2019-06-08T22:29:03.628Z,22.50
2019-06-08T22:31:31.437Z,22.50
2019-06-08T22:34:02.539Z,22.50
2019-06-08T22:36:30.538Z,22.50
2019-06-08T22:39:00.580Z,22.40
2019-06-08T22:41:28.062Z,22.40
2019-06-08T22:43:59.143Z,22.70
2019-06-08T22:46:25.132Z,22.70
2019-06-08T22:48:53.581Z,22.80
2019-06-08T22:51:21.692Z,22.70
2019-06-08T22:53:49.017Z,22.70
2019-06-08T22:56:18.337Z,22.70
2019-06-08T22:58:47.879Z,22.70
2019-06-08T23:01:15.012Z,22.60
2019-06-08T23:03:42.196Z,22.60
2019-06-08T23:06:09.379Z,22.60
2019-06-08T23:08:37.520Z,22.60
2019-06-08T23:11:08.307Z,22.70
2019-06-08T23:13:37.518Z,22.70
2019-06-08T23:16:05.608Z,22.70
2019-06-08T23:18:33.762Z,22.80
2019-06-08T23:21:02.733Z,22.90
2019-06-08T23:23:30.312Z,22.80
2019-06-08T23:26:00.554Z,22.80
2019-06-08T23:28:28.262Z,22.90
2019-06-08T23:31:09.382Z,23.00
2019-06-08T23:33:27.923Z,23.10
2019-06-08T23:36:30.508Z,23.20
2019-06-08T23:38:24.572Z,23.10
2019-06-08T23:40:52.008Z,23.20
2019-06-08T23:43:19.456Z,23.20
2019-06-08T23:45:47.432Z,23.20
2019-06-08T23:48:17.438Z,23.10
2019-06-08T23:50:47.454Z,23.20
2019-06-08T23:53:15.062Z,23.00
2019-06-08T23:55:42.269Z,23.00
2019-06-08T23:58:11.283Z,23.00
